sensor_id;sensor_type;location;lat;lon;timestamp;pressure;altitude;pressure_sealevel;temperature;humidity
7168;BME280;3625;51.762;14.320;2023-04-07T00:00:47;101017.44;;;0.43;95.94
7168;BME280;3625;51.762;14.320;2023-04-07T00:03:16;101012.16;;;0.40;96.95
7168;BME280;3625;51.762;14.320;2023-04-07T00:05:46;100989.19;;;0.25;96.76
7168;BME280;3625;51.762;14.320;2023-04-07T00:08:14;100991.81;;;0.26;96.28
7168;BME280;3625;51.762;14.320;2023-04-07T00:10:43;100949.63;;;0.05;96.53
7168;BME280;3625;51.762;14.320;2023-04-07T00:13:11;100998.09;;;0.33;97.06
7168;BME280;3625;51.762;14.320;2023-04-07T00:15:40;101011.38;;;0.44;98.64
7168;BME280;3625;51.762;14.320;2023-04-07T00:18:08;101005.47;;;0.49;100.00
7168;BME280;3625;51.762;14.320;2023-04-07T00:20:37;100938.50;;;0.11;100.00
7168;BME280;3625;51.762;14.320;2023-04-07T00:23:07;101005.47;;;0.49;100.00
7168;BME280;3625;51.762;14.320;2023-04-07T00:25:36;100993.84;;;0.36;100.00
7168;BME280;3625;51.762;14.320;2023-04-07T00:28:04;101005.28;;;0.42;100.00
7168;BME280;3625;51.762;14.320;2023-04-07T00:30:33;101006.84;;;0.36;100.00
7168;BME280;3625;51.762;14.320;2023-04-07T00:33:01;100969.81;;;0.14;100.00
7168;BME280;3625;51.762;14.320;2023-04-07T00:35:30;100949.47;;;-0.01;100.00
7168;BME280;3625;51.762;14.320;2023-04-07T00:37:58;101004.97;;;0.31;100.00
7168;BME280;3625;51.762;14.320;2023-04-07T00:40:28;100995.41;;;0.30;100.00
7168;BME280;3625;51.762;14.320;2023-04-07T00:42:57;100999.78;;;0.31;100.00
7168;BME280;3625;51.762;14.320;2023-04-07T00:45:26;100995.59;;;0.37;100.00
7168;BME280;3625;51.762;14.320;2023-04-07T00:47:56;100903.34;;;-0.07;100.00
7168;BME280;3625;51.762;14.320;2023-04-07T00:50:25;100994.28;;;0.52;100.00
7168;BME280;3625;51.762;14.320;2023-04-07T00:52:53;100987.56;;;0.60;100.00
7168;BME280;3625;51.762;14.320;2023-04-07T00:55:23;100983.44;;;0.68;100.00
7168;BME280;3625;51.762;14.320;2023-04-07T00:57:53;100985.28;;;0.73;100.00
7168;BME280;3625;51.762;14.320;2023-04-07T01:00:22;100982.78;;;0.78;100.00
7168;BME280;3625;51.762;14.320;2023-04-07T01:02:58;100982.09;;;0.84;100.00
7168;BME280;3625;51.762;14.320;2023-04-07T01:05:39;100984.84;;;0.90;100.00
7168;BME280;3625;51.762;14.320;2023-04-07T01:08:19;100972.84;;;0.96;100.00
7168;BME280;3625;51.762;14.320;2023-04-07T01:10:56;100980.00;;;1.05;100.00
7168;BME280;3625;51.762;14.320;2023-04-07T01:13:36;100975.81;;;1.10;100.00
7168;BME280;3625;51.762;14.320;2023-04-07T01:16:22;100932.00;;;0.95;100.00
7168;BME280;3625;51.762;14.320;2023-04-07T01:18:55;100953.19;;;1.09;100.00
7168;BME280;3625;51.762;14.320;2023-04-07T01:21:27;100941.09;;;1.12;100.00
7168;BME280;3625;51.762;14.320;2023-04-07T01:24:17;100959.91;;;1.35;100.00
7168;BME280;3625;51.762;14.320;2023-04-07T01:26:50;100959.94;;;1.37;100.00
7168;BME280;3625;51.762;14.320;2023-04-07T01:29:33;100932.81;;;1.30;100.00
7168;BME280;3625;51.762;14.320;2023-04-07T01:32:05;100962.00;;;1.51;100.00
7168;BME280;3625;51.762;14.320;2023-04-07T01:34:35;100968.19;;;1.55;100.00
7168;BME280;3625;51.762;14.320;2023-04-07T01:37:07;100833.50;;;0.78;100.00
7168;BME280;3625;51.762;14.320;2023-04-07T01:39:39;100961.28;;;1.59;100.00
7168;BME280;3625;51.762;14.320;2023-04-07T01:42:08;100957.91;;;1.63;100.00
7168;BME280;3625;51.762;14.320;2023-04-07T01:44:40;100957.97;;;1.66;100.00
7168;BME280;3625;51.762;14.320;2023-04-07T01:47:10;100949.31;;;1.68;100.00
7168;BME280;3625;51.762;14.320;2023-04-07T01:49:40;100901.84;;;1.42;100.00
7168;BME280;3625;51.762;14.320;2023-04-07T01:52:09;100896.59;;;1.41;100.00
7168;BME280;3625;51.762;14.320;2023-04-07T01:54:39;100947.63;;;1.70;100.00
7168;BME280;3625;51.762;14.320;2023-04-07T01:57:08;100949.38;;;1.70;100.00
7168;BME280;3625;51.762;14.320;2023-04-07T01:59:38;100946.72;;;1.68;100.00
7168;BME280;3625;51.762;14.320;2023-04-07T02:02:07;100954.59;;;1.70;100.00
7168;BME280;3625;51.762;14.320;2023-04-07T02:04:46;100953.69;;;1.69;100.00
7168;BME280;3625;51.762;14.320;2023-04-07T02:07:24;100907.97;;;1.44;100.00
7168;BME280;3625;51.762;14.320;2023-04-07T02:09:57;100907.13;;;1.45;100.00
7168;BME280;3625;51.762;14.320;2023-04-07T02:12:30;100949.44;;;1.73;100.00
7168;BME280;3625;51.762;14.320;2023-04-07T02:15:12;100892.28;;;1.43;100.00
7168;BME280;3625;51.762;14.320;2023-04-07T02:17:47;100933.59;;;1.64;100.00
7168;BME280;3625;51.762;14.320;2023-04-07T02:20:19;100949.41;;;1.71;100.00
7168;BME280;3625;51.762;14.320;2023-04-07T02:22:48;100944.16;;;1.70;100.00
7168;BME280;3625;51.762;14.320;2023-04-07T02:25:22;100944.13;;;1.68;100.00
7168;BME280;3625;51.762;14.320;2023-04-07T02:27:54;100939.69;;;1.64;100.00
7168;BME280;3625;51.762;14.320;2023-04-07T02:30:26;100940.50;;;1.62;100.00
7168;BME280;3625;51.762;14.320;2023-04-07T02:32:55;100937.84;;;1.60;100.00
7168;BME280;3625;51.762;14.320;2023-04-07T02:35:24;100907.91;;;1.41;100.00
7168;BME280;3625;51.762;14.320;2023-04-07T02:37:52;100933.53;;;1.61;100.00
7168;BME280;3625;51.762;14.320;2023-04-07T02:40:21;100936.09;;;1.59;100.00
7168;BME280;3625;51.762;14.320;2023-04-07T02:42:52;100908.91;;;1.48;100.00
7168;BME280;3625;51.762;14.320;2023-04-07T02:45:23;100931.78;;;1.61;100.00
7168;BME280;3625;51.762;14.320;2023-04-07T02:47:52;100929.16;;;1.60;100.00
7168;BME280;3625;51.762;14.320;2023-04-07T02:50:21;100931.75;;;1.60;100.00
7168;BME280;3625;51.762;14.320;2023-04-07T02:52:52;100927.38;;;1.59;100.00
7168;BME280;3625;51.762;14.320;2023-04-07T02:55:20;100926.47;;;1.57;100.00
7168;BME280;3625;51.762;14.320;2023-04-07T02:57:49;100929.03;;;1.54;100.00
7168;BME280;3625;51.762;14.320;2023-04-07T03:00:30;100907.94;;;1.43;100.00
7168;BME280;3625;51.762;14.320;2023-04-07T03:03:05;100923.63;;;1.44;100.00
7168;BME280;3625;51.762;14.320;2023-04-07T03:05:37;100919.25;;;1.43;100.00
7168;BME280;3625;51.762;14.320;2023-04-07T03:08:07;100913.94;;;1.40;100.00
7168;BME280;3625;51.762;14.320;2023-04-07T03:10:39;100916.47;;;1.36;100.00
7168;BME280;3625;51.762;14.320;2023-04-07T03:13:08;100916.44;;;1.34;100.00
7168;BME280;3625;51.762;14.320;2023-04-07T03:15:40;100871.53;;;1.08;100.00
7168;BME280;3625;51.762;14.320;2023-04-07T03:18:10;100914.69;;;1.35;100.00
7168;BME280;3625;51.762;14.320;2023-04-07T03:20:41;100719.34;;;0.19;100.00
7168;BME280;3625;51.762;14.320;2023-04-07T03:23:11;100911.00;;;1.25;100.00
7168;BME280;3625;51.762;14.320;2023-04-07T03:25:41;100916.97;;;1.21;100.00
7168;BME280;3625;51.762;14.320;2023-04-07T03:28:11;100918.63;;;1.16;100.00
7168;BME280;3625;51.762;14.320;2023-04-07T03:30:41;100911.56;;;1.10;100.00
7168;BME280;3625;51.762;14.320;2023-04-07T03:33:10;100910.53;;;1.05;100.00
7168;BME280;3625;51.762;14.320;2023-04-07T03:35:39;100906.88;;;0.97;100.00
7168;BME280;3625;51.762;14.320;2023-04-07T03:38:08;100903.25;;;0.91;100.00
7168;BME280;3625;51.762;14.320;2023-04-07T03:40:37;100903.13;;;0.85;100.00
7168;BME280;3625;51.762;14.320;2023-04-07T03:43:06;100898.75;;;0.84;100.00
7168;BME280;3625;51.762;14.320;2023-04-07T03:45:41;100895.25;;;0.83;100.00
7168;BME280;3625;51.762;14.320;2023-04-07T03:48:10;100899.47;;;0.77;100.00
7168;BME280;3625;51.762;14.320;2023-04-07T03:50:49;100894.06;;;0.69;100.00
7168;BME280;3625;51.762;14.320;2023-04-07T03:53:19;100886.91;;;0.62;100.00
7168;BME280;3625;51.762;14.320;2023-04-07T03:55:48;100894.63;;;0.57;100.00
7168;BME280;3625;51.762;14.320;2023-04-07T03:58:27;100894.50;;;0.51;100.00
7168;BME280;3625;51.762;14.320;2023-04-07T04:00:57;100894.31;;;0.45;100.00
7168;BME280;3625;51.762;14.320;2023-04-07T04:03:26;100897.69;;;0.41;100.00
7168;BME280;3625;51.762;14.320;2023-04-07T04:06:15;100889.94;;;0.43;100.00
7168;BME280;3625;51.762;14.320;2023-04-07T04:08:44;100901.31;;;0.48;100.00
7168;BME280;3625;51.762;14.320;2023-04-07T04:11:13;100900.59;;;0.53;100.00
7168;BME280;3625;51.762;14.320;2023-04-07T04:13:50;100904.13;;;0.55;100.00
7168;BME280;3625;51.762;14.320;2023-04-07T04:16:20;100911.84;;;0.52;100.00
7168;BME280;3625;51.762;14.320;2023-04-07T04:18:51;100910.94;;;0.50;100.00
7168;BME280;3625;51.762;14.320;2023-04-07T04:21:21;100908.16;;;0.44;100.00
7168;BME280;3625;51.762;14.320;2023-04-07T04:23:51;100909.81;;;0.41;100.00
7168;BME280;3625;51.762;14.320;2023-04-07T04:26:20;100913.31;;;0.41;100.00
7168;BME280;3625;51.762;14.320;2023-04-07T04:28:56;100911.53;;;0.40;100.00
7168;BME280;3625;51.762;14.320;2023-04-07T04:31:26;100909.88;;;0.44;100.00
7168;BME280;3625;51.762;14.320;2023-04-07T04:33:55;100910.97;;;0.52;100.00
7168;BME280;3625;51.762;14.320;2023-04-07T04:36:24;100912.94;;;0.60;100.00
7168;BME280;3625;51.762;14.320;2023-04-07T04:38:58;100910.53;;;0.69;100.00
7168;BME280;3625;51.762;14.320;2023-04-07T04:41:28;100913.34;;;0.77;100.00
7168;BME280;3625;51.762;14.320;2023-04-07T04:43:57;100909.97;;;0.81;100.00
7168;BME280;3625;51.762;14.320;2023-04-07T04:46:28;100905.03;;;0.92;100.00
7168;BME280;3625;51.762;14.320;2023-04-07T04:48:57;100913.00;;;0.99;100.00
7168;BME280;3625;51.762;14.320;2023-04-07T04:51:26;100910.50;;;1.04;100.00
7168;BME280;3625;51.762;14.320;2023-04-07T04:54:01;100915.09;;;1.14;100.00
7168;BME280;3625;51.762;14.320;2023-04-07T04:56:31;100914.38;;;1.20;100.00
7168;BME280;3625;51.762;14.320;2023-04-07T04:59:00;100917.97;;;1.26;100.00
7168;BME280;3625;51.762;14.320;2023-04-07T05:01:43;100913.78;;;1.33;100.00
7168;BME280;3625;51.762;14.320;2023-04-07T05:04:16;100913.06;;;1.40;100.00
7168;BME280;3625;51.762;14.320;2023-04-07T05:06:53;100921.19;;;1.54;100.00
7168;BME280;3625;51.762;14.320;2023-04-07T05:09:29;100913.66;;;1.67;100.00
7168;BME280;3625;51.762;14.320;2023-04-07T05:11:58;100923.47;;;1.79;100.00
7168;BME280;3625;51.762;14.320;2023-04-07T05:14:34;100922.91;;;1.94;100.00
7168;BME280;3625;51.762;14.320;2023-04-07T05:17:07;100849.34;;;1.68;100.00
7168;BME280;3625;51.762;14.320;2023-04-07T05:19:37;100921.78;;;2.26;100.00
7168;BME280;3625;51.762;14.320;2023-04-07T05:22:14;100928.19;;;2.42;96.70
7168;BME280;3625;51.762;14.320;2023-04-07T05:24:46;100928.50;;;2.58;96.20
7168;BME280;3625;51.762;14.320;2023-04-07T05:27:15;100930.28;;;2.62;91.52
7168;BME280;3625;51.762;14.320;2023-04-07T05:29:49;100930.53;;;2.76;91.56
7168;BME280;3625;51.762;14.320;2023-04-07T05:32:27;100861.84;;;2.31;88.88
7168;BME280;3625;51.762;14.320;2023-04-07T05:34:58;100934.97;;;2.82;89.97
7168;BME280;3625;51.762;14.320;2023-04-07T05:37:31;100927.31;;;2.92;90.98
7168;BME280;3625;51.762;14.320;2023-04-07T05:40:04;100924.00;;;3.02;91.74
7168;BME280;3625;51.762;14.320;2023-04-07T05:42:36;100926.81;;;3.16;91.42
7168;BME280;3625;51.762;14.320;2023-04-07T05:45:07;100919.13;;;3.25;91.63
7168;BME280;3625;51.762;14.320;2023-04-07T05:47:41;100920.94;;;3.31;90.97
7168;BME280;3625;51.762;14.320;2023-04-07T05:50:11;100922.81;;;3.41;91.88
7168;BME280;3625;51.762;14.320;2023-04-07T05:52:43;100911.63;;;3.51;91.91
7168;BME280;3625;51.762;14.320;2023-04-07T05:55:22;100920.44;;;3.58;90.50
7168;BME280;3625;51.762;14.320;2023-04-07T05:57:52;100927.47;;;3.63;89.34
7168;BME280;3625;51.762;14.320;2023-04-07T06:00:24;100926.69;;;3.67;88.85
7168;BME280;3625;51.762;14.320;2023-04-07T06:03:03;100931.09;;;3.71;88.68
7168;BME280;3625;51.762;14.320;2023-04-07T06:05:45;100902.09;;;3.56;88.66
7168;BME280;3625;51.762;14.320;2023-04-07T06:08:13;100939.13;;;3.85;88.46
7168;BME280;3625;51.762;14.320;2023-04-07T06:10:42;100939.28;;;3.97;88.10
7168;BME280;3625;51.762;14.320;2023-04-07T06:13:12;100936.84;;;4.12;87.57
7168;BME280;3625;51.762;14.320;2023-04-07T06:15:41;100933.47;;;4.26;86.80
7168;BME280;3625;51.762;14.320;2023-04-07T06:18:11;100877.44;;;4.08;85.92
7168;BME280;3625;51.762;14.320;2023-04-07T06:20:40;100926.88;;;4.61;84.95
7168;BME280;3625;51.762;14.320;2023-04-07T06:23:09;100936.66;;;4.80;83.30
7168;BME280;3625;51.762;14.320;2023-04-07T06:25:38;100934.19;;;4.99;82.24
7168;BME280;3625;51.762;14.320;2023-04-07T06:28:06;100932.59;;;5.20;81.07
7168;BME280;3625;51.762;14.320;2023-04-07T06:30:35;100939.69;;;5.37;79.32
7168;BME280;3625;51.762;14.320;2023-04-07T06:33:08;100816.06;;;4.79;77.80
7168;BME280;3625;51.762;14.320;2023-04-07T06:35:38;100878.41;;;5.21;77.12
7168;BME280;3625;51.762;14.320;2023-04-07T06:38:07;100931.09;;;5.59;76.12
7168;BME280;3625;51.762;14.320;2023-04-07T06:40:37;100931.16;;;5.68;75.33
7168;BME280;3625;51.762;14.320;2023-04-07T06:43:06;100928.56;;;5.80;74.84
7168;BME280;3625;51.762;14.320;2023-04-07T06:45:53;100933.94;;;5.92;74.15
7168;BME280;3625;51.762;14.320;2023-04-07T06:48:22;100936.63;;;6.04;74.25
7168;BME280;3625;51.762;14.320;2023-04-07T06:50:52;100939.25;;;6.11;74.06
7168;BME280;3625;51.762;14.320;2023-04-07T06:53:21;100879.59;;;5.84;74.13
7168;BME280;3625;51.762;14.320;2023-04-07T06:55:50;100911.25;;;6.13;74.29
7168;BME280;3625;51.762;14.320;2023-04-07T06:58:19;100927.06;;;6.41;74.06
7168;BME280;3625;51.762;14.320;2023-04-07T07:00:48;100936.75;;;6.49;73.72
7168;BME280;3625;51.762;14.320;2023-04-07T07:03:16;100805.22;;;5.86;73.91
7168;BME280;3625;51.762;14.320;2023-04-07T07:05:45;100878.88;;;6.35;72.62
7168;BME280;3625;51.762;14.320;2023-04-07T07:08:18;100919.25;;;6.64;71.03
7168;BME280;3625;51.762;14.320;2023-04-07T07:10:46;100943.78;;;6.88;72.03
7168;BME280;3625;51.762;14.320;2023-04-07T07:13:15;100939.44;;;7.00;69.91
7168;BME280;3625;51.762;14.320;2023-04-07T07:15:44;100902.56;;;6.93;70.19
7168;BME280;3625;51.762;14.320;2023-04-07T07:18:12;100935.03;;;7.24;68.73
7168;BME280;3625;51.762;14.320;2023-04-07T07:20:41;100921.88;;;7.13;67.37
7168;BME280;3625;51.762;14.320;2023-04-07T07:23:10;100946.41;;;7.33;67.49
7168;BME280;3625;51.762;14.320;2023-04-07T07:25:40;100949.03;;;7.38;67.35
7168;BME280;3625;51.762;14.320;2023-04-07T07:28:08;100947.28;;;7.40;66.56
7168;BME280;3625;51.762;14.320;2023-04-07T07:30:39;100949.03;;;7.47;66.46
7168;BME280;3625;51.762;14.320;2023-04-07T07:33:08;100938.47;;;7.44;65.45
7168;BME280;3625;51.762;14.320;2023-04-07T07:35:36;100956.91;;;7.61;65.11
7168;BME280;3625;51.762;14.320;2023-04-07T07:38:06;100953.38;;;7.68;64.64
7168;BME280;3625;51.762;14.320;2023-04-07T07:40:35;100960.38;;;7.76;63.93
7168;BME280;3625;51.762;14.320;2023-04-07T07:43:05;100954.22;;;7.86;63.36
7168;BME280;3625;51.762;14.320;2023-04-07T07:45:33;100959.44;;;7.95;62.91
7168;BME280;3625;51.762;14.320;2023-04-07T07:48:02;100955.03;;;8.02;62.15
7168;BME280;3625;51.762;14.320;2023-04-07T07:50:31;100959.38;;;8.08;61.96
7168;BME280;3625;51.762;14.320;2023-04-07T07:53:00;100972.53;;;8.18;61.13
7168;BME280;3625;51.762;14.320;2023-04-07T07:55:29;100966.34;;;8.27;60.91
7168;BME280;3625;51.762;14.320;2023-04-07T07:57:57;100961.88;;;8.40;59.91
7168;BME280;3625;51.762;14.320;2023-04-07T08:00:27;100966.22;;;8.53;59.80
7168;BME280;3625;51.762;14.320;2023-04-07T08:02:56;100969.63;;;8.72;60.41
7168;BME280;3625;51.762;14.320;2023-04-07T08:05:25;100970.41;;;8.87;59.90
7168;BME280;3625;51.762;14.320;2023-04-07T08:07:53;100981.78;;;8.91;58.50
7168;BME280;3625;51.762;14.320;2023-04-07T08:10:23;100973.84;;;8.97;58.17
7168;BME280;3625;51.762;14.320;2023-04-07T08:12:52;100974.72;;;8.97;57.04
7168;BME280;3625;51.762;14.320;2023-04-07T08:15:21;100976.41;;;9.06;57.86
7168;BME280;3625;51.762;14.320;2023-04-07T08:17:50;100969.31;;;9.13;57.56
7168;BME280;3625;51.762;14.320;2023-04-07T08:20:22;100978.13;;;9.13;55.97
7168;BME280;3625;51.762;14.320;2023-04-07T08:22:51;100985.88;;;9.33;57.83
7168;BME280;3625;51.762;14.320;2023-04-07T08:25:20;100982.38;;;9.32;56.01
7168;BME280;3625;51.762;14.320;2023-04-07T08:27:49;100978.84;;;9.32;54.88
7168;BME280;3625;51.762;14.320;2023-04-07T08:30:17;100985.00;;;9.31;55.48
7168;BME280;3625;51.762;14.320;2023-04-07T08:32:47;100984.22;;;9.23;54.04
7168;BME280;3625;51.762;14.320;2023-04-07T08:35:17;100990.31;;;9.29;54.36
7168;BME280;3625;51.762;14.320;2023-04-07T08:37:46;100995.25;;;9.64;54.54
7168;BME280;3625;51.762;14.320;2023-04-07T08:40:16;100993.66;;;9.46;52.81
7168;BME280;3625;51.762;14.320;2023-04-07T08:42:47;101001.81;;;9.21;53.99
7168;BME280;3625;51.762;14.320;2023-04-07T08:45:17;100989.91;;;9.70;53.83
7168;BME280;3625;51.762;14.320;2023-04-07T08:47:49;101002.75;;;10.05;51.73
7168;BME280;3625;51.762;14.320;2023-04-07T08:50:26;100981.41;;;10.24;50.22
7168;BME280;3625;51.762;14.320;2023-04-07T08:52:56;100959.66;;;9.99;50.60
7168;BME280;3625;51.762;14.320;2023-04-07T08:55:28;100934.41;;;9.73;50.00
7168;BME280;3625;51.762;14.320;2023-04-07T08:57:58;101010.28;;;10.42;50.47
7168;BME280;3625;51.762;14.320;2023-04-07T09:00:28;101005.78;;;10.48;49.00
7168;BME280;3625;51.762;14.320;2023-04-07T09:02:59;101011.91;;;10.52;48.69
7168;BME280;3625;51.762;14.320;2023-04-07T09:05:31;101000.47;;;10.50;49.27
7168;BME280;3625;51.762;14.320;2023-04-07T09:08:01;101016.47;;;10.39;49.33
7168;BME280;3625;51.762;14.320;2023-04-07T09:10:31;101009.81;;;10.05;50.70
7168;BME280;3625;51.762;14.320;2023-04-07T09:13:00;101011.03;;;10.51;50.38
7168;BME280;3625;51.762;14.320;2023-04-07T09:15:30;100898.00;;;9.17;51.50
7168;BME280;3625;51.762;14.320;2023-04-07T09:18:02;101009.63;;;10.23;51.85
7168;BME280;3625;51.762;14.320;2023-04-07T09:20:58;101007.81;;;10.28;50.58
7168;BME280;3625;51.762;14.320;2023-04-07T09:23:30;100984.53;;;9.79;51.12
7168;BME280;3625;51.762;14.320;2023-04-07T09:26:17;100942.22;;;9.86;52.03
7168;BME280;3625;51.762;14.320;2023-04-07T09:28:51;101007.34;;;9.88;50.83
7168;BME280;3625;51.762;14.320;2023-04-07T09:31:22;101005.56;;;9.92;50.97
7168;BME280;3625;51.762;14.320;2023-04-07T09:33:52;101006.72;;;10.46;49.45
7168;BME280;3625;51.762;14.320;2023-04-07T09:36:24;101001.03;;;10.73;49.92
7168;BME280;3625;51.762;14.320;2023-04-07T09:39:07;100979.50;;;10.38;49.59
7168;BME280;3625;51.762;14.320;2023-04-07T09:41:36;100997.94;;;10.41;48.91
7168;BME280;3625;51.762;14.320;2023-04-07T09:44:05;100987.91;;;10.66;48.93
7168;BME280;3625;51.762;14.320;2023-04-07T09:46:33;101001.50;;;11.01;48.97
7168;BME280;3625;51.762;14.320;2023-04-07T09:49:04;100961.75;;;10.46;48.03
7168;BME280;3625;51.762;14.320;2023-04-07T09:51:34;100957.00;;;10.69;48.07
7168;BME280;3625;51.762;14.320;2023-04-07T09:54:04;100899.22;;;9.70;47.49
7168;BME280;3625;51.762;14.320;2023-04-07T09:56:35;100966.72;;;9.97;48.13
7168;BME280;3625;51.762;14.320;2023-04-07T09:59:04;100978.38;;;9.77;48.75
7168;BME280;3625;51.762;14.320;2023-04-07T10:01:35;100980.22;;;9.72;48.99
7168;BME280;3625;51.762;14.320;2023-04-07T10:04:04;100980.44;;;9.51;49.10
7168;BME280;3625;51.762;14.320;2023-04-07T10:06:35;100975.16;;;9.51;49.96
7168;BME280;3625;51.762;14.320;2023-04-07T10:09:04;100970.16;;;9.18;51.33
7168;BME280;3625;51.762;14.320;2023-04-07T10:11:32;100972.44;;;9.57;51.08
7168;BME280;3625;51.762;14.320;2023-04-07T10:14:01;100977.41;;;9.88;49.55
7168;BME280;3625;51.762;14.320;2023-04-07T10:16:31;100965.84;;;9.98;48.89
7168;BME280;3625;51.762;14.320;2023-04-07T10:19:01;100941.56;;;9.61;48.87
7168;BME280;3625;51.762;14.320;2023-04-07T10:21:38;100973.06;;;9.80;49.30
7168;BME280;3625;51.762;14.320;2023-04-07T10:24:20;100977.75;;;9.53;50.14
7168;BME280;3625;51.762;14.320;2023-04-07T10:26:59;100979.53;;;9.52;50.92
7168;BME280;3625;51.762;14.320;2023-04-07T10:29:36;100971.38;;;9.75;50.98
7168;BME280;3625;51.762;14.320;2023-04-07T10:32:08;100978.06;;;10.05;49.04
7168;BME280;3625;51.762;14.320;2023-04-07T10:34:59;100980.00;;;9.91;48.69
7168;BME280;3625;51.762;14.320;2023-04-07T10:37:30;100979.16;;;9.89;48.53
7168;BME280;3625;51.762;14.320;2023-04-07T10:40:27;100963.38;;;9.82;48.91
7168;BME280;3625;51.762;14.320;2023-04-07T10:42:56;100979.13;;;9.92;49.22
7168;BME280;3625;51.762;14.320;2023-04-07T10:45:56;100953.47;;;9.16;49.45
7168;BME280;3625;51.762;14.320;2023-04-07T10:48:27;100873.13;;;8.40;50.25
7168;BME280;3625;51.762;14.320;2023-04-07T10:51:14;100987.00;;;9.03;51.31
7168;BME280;3625;51.762;14.320;2023-04-07T10:54:19;100976.16;;;9.36;50.64
7168;BME280;3625;51.762;14.320;2023-04-07T10:57:09;100983.00;;;9.57;49.77
7168;BME280;3625;51.762;14.320;2023-04-07T11:02:32;100982.94;;;9.65;50.65
7168;BME280;3625;51.762;14.320;2023-04-07T11:05:02;100971.47;;;9.66;50.60
7168;BME280;3625;51.762;14.320;2023-04-07T11:07:52;100976.94;;;9.46;52.52
7168;BME280;3625;51.762;14.320;2023-04-07T11:10:25;100974.84;;;8.79;57.35
7168;BME280;3625;51.762;14.320;2023-04-07T11:13:00;100973.31;;;8.45;62.35
7168;BME280;3625;51.762;14.320;2023-04-07T11:15:29;100970.53;;;8.69;64.57
7168;BME280;3625;51.762;14.320;2023-04-07T11:18:17;100877.34;;;8.65;60.72
7168;BME280;3625;51.762;14.320;2023-04-07T11:20:51;100969.81;;;9.54;59.15
7168;BME280;3625;51.762;14.320;2023-04-07T11:23:22;100964.38;;;9.71;57.85
7168;BME280;3625;51.762;14.320;2023-04-07T11:25:59;100966.03;;;9.79;56.70
7168;BME280;3625;51.762;14.320;2023-04-07T11:28:29;100919.44;;;9.71;56.57
7168;BME280;3625;51.762;14.320;2023-04-07T11:30:58;100968.34;;;10.10;56.70
7168;BME280;3625;51.762;14.320;2023-04-07T11:33:29;100963.16;;;10.02;56.40
7168;BME280;3625;51.762;14.320;2023-04-07T11:36:00;100941.91;;;9.26;55.87
7168;BME280;3625;51.762;14.320;2023-04-07T11:38:35;100981.75;;;8.98;55.51
7168;BME280;3625;51.762;14.320;2023-04-07T11:41:13;100974.47;;;9.26;55.43
7168;BME280;3625;51.762;14.320;2023-04-07T11:43:42;100974.38;;;9.40;55.94
7168;BME280;3625;51.762;14.320;2023-04-07T11:46:13;100980.53;;;9.39;55.56
7168;BME280;3625;51.762;14.320;2023-04-07T11:48:44;100895.09;;;8.47;55.98
7168;BME280;3625;51.762;14.320;2023-04-07T11:51:20;100953.56;;;9.05;55.86
7168;BME280;3625;51.762;14.320;2023-04-07T11:53:54;100947.53;;;8.89;55.93
7168;BME280;3625;51.762;14.320;2023-04-07T11:56:25;100946.78;;;8.67;58.79
7168;BME280;3625;51.762;14.320;2023-04-07T11:58:55;100974.53;;;9.23;59.47
7168;BME280;3625;51.762;14.320;2023-04-07T12:01:39;100961.00;;;8.42;64.28
7168;BME280;3625;51.762;14.320;2023-04-07T12:04:12;100942.25;;;8.88;63.65
7168;BME280;3625;51.762;14.320;2023-04-07T12:06:43;100967.06;;;9.66;58.09
7168;BME280;3625;51.762;14.320;2023-04-07T12:09:27;100966.13;;;9.72;58.97
7168;BME280;3625;51.762;14.320;2023-04-07T12:11:58;100966.00;;;9.84;56.30
7168;BME280;3625;51.762;14.320;2023-04-07T12:14:27;100970.50;;;9.76;56.99
7168;BME280;3625;51.762;14.320;2023-04-07T12:16:55;100921.19;;;9.73;55.87
7168;BME280;3625;51.762;14.320;2023-04-07T12:19:26;100956.31;;;9.83;52.95
7168;BME280;3625;51.762;14.320;2023-04-07T12:21:55;100976.59;;;9.82;53.94
7168;BME280;3625;51.762;14.320;2023-04-07T12:24:24;100978.34;;;9.80;54.47
7168;BME280;3625;51.762;14.320;2023-04-07T12:26:53;100977.38;;;9.89;54.80
7168;BME280;3625;51.762;14.320;2023-04-07T12:29:23;100968.63;;;9.86;53.27
7168;BME280;3625;51.762;14.320;2023-04-07T12:31:52;100975.75;;;9.77;53.52
7168;BME280;3625;51.762;14.320;2023-04-07T12:34:21;100971.69;;;9.43;53.90
7168;BME280;3625;51.762;14.320;2023-04-07T12:36:49;100976.44;;;9.04;55.64
7168;BME280;3625;51.762;14.320;2023-04-07T12:39:18;100976.34;;;9.15;55.51
7168;BME280;3625;51.762;14.320;2023-04-07T12:41:46;100983.28;;;9.28;55.86
7168;BME280;3625;51.762;14.320;2023-04-07T12:44:15;100976.19;;;9.33;55.48
7168;BME280;3625;51.762;14.320;2023-04-07T12:46:45;100984.25;;;9.17;54.54
7168;BME280;3625;51.762;14.320;2023-04-07T12:49:14;100986.19;;;8.93;54.46
7168;BME280;3625;51.762;14.320;2023-04-07T12:51:43;100979.88;;;9.11;54.26
7168;BME280;3625;51.762;14.320;2023-04-07T12:54:12;100977.25;;;9.09;54.60
7168;BME280;3625;51.762;14.320;2023-04-07T12:56:41;100983.59;;;8.83;52.64
7168;BME280;3625;51.762;14.320;2023-04-07T12:59:09;100980.88;;;8.98;53.32
7168;BME280;3625;51.762;14.320;2023-04-07T13:01:38;100980.72;;;9.18;53.20
7168;BME280;3625;51.762;14.320;2023-04-07T13:04:08;100978.00;;;9.27;52.89
7168;BME280;3625;51.762;14.320;2023-04-07T13:06:37;100981.63;;;9.14;53.60
7168;BME280;3625;51.762;14.320;2023-04-07T13:09:06;100985.06;;;9.25;54.11
7168;BME280;3625;51.762;14.320;2023-04-07T13:11:34;100984.47;;;8.88;55.31
7168;BME280;3625;51.762;14.320;2023-04-07T13:14:03;100982.81;;;8.73;56.91
7168;BME280;3625;51.762;14.320;2023-04-07T13:16:33;100980.38;;;8.38;59.04
7168;BME280;3625;51.762;14.320;2023-04-07T13:19:02;100977.59;;;8.64;58.84
7168;BME280;3625;51.762;14.320;2023-04-07T13:21:32;100982.00;;;8.60;58.94
7168;BME280;3625;51.762;14.320;2023-04-07T13:24:13;100978.63;;;8.28;60.07
7168;BME280;3625;51.762;14.320;2023-04-07T13:26:42;100978.84;;;7.37;62.91
7168;BME280;3625;51.762;14.320;2023-04-07T13:29:10;100974.50;;;7.31;63.72
7168;BME280;3625;51.762;14.320;2023-04-07T13:31:39;100970.97;;;7.40;64.51